Time;durP1;ratioP1;P1;durP2;ratioP2;P2;SDS_P1;SDS_P2;PMS_P1;PMS_P2;Temp;Humidity;BMP_temperature;BMP_pressure;BME280_temperature;BME280_humidity;BME280_pressure;Samples;Min_cycle;Max_cycle;Signal;HPM_P1;HPM_P2
2022/04/14 00:00:29;;;;;;;21.93;20.93;;;14.70;42.30;;;;;;6219226;23;20564;-79
2022/04/14 00:02:55;;;;;;;21.53;20.53;;;14.70;42.40;;;;;;6220157;23;20386;-79
2022/04/14 00:05:21;;;;;;;22.97;21.57;;;14.60;42.60;;;;;;6220415;23;20426;-79
2022/04/14 00:07:47;;;;;;;23.20;22.10;;;14.60;42.80;;;;;;6220218;23;20386;-79
2022/04/14 00:10:14;;;;;;;23.80;22.60;;;14.60;43.10;;;;;;6219466;23;20386;-79
2022/04/14 00:12:39;;;;;;;21.83;20.93;;;14.60;43.40;;;;;;6218961;23;20379;-80
2022/04/14 00:15:06;;;;;;;22.03;21.03;;;14.50;43.60;;;;;;6218584;23;20421;-80
2022/04/14 00:17:33;;;;;;;22.50;21.40;;;14.50;43.80;;;;;;6218374;23;20151;-80
2022/04/14 00:20:05;;;;;;;21.93;20.93;;;14.50;43.90;;;;;;6218782;23;20862;-80
2022/04/14 00:22:30;;;;;;;22.43;21.33;;;14.50;44.10;;;;;;6218745;23;20714;-80
2022/04/14 00:24:56;;;;;;;22.33;21.20;;;14.50;44.00;;;;;;6218018;23;20394;-80
2022/04/14 00:27:21;;;;;;;22.27;21.17;;;14.60;43.90;;;;;;6219056;23;20159;-80
2022/04/14 00:29:48;;;;;;;22.73;21.63;;;14.60;43.60;;;;;;6218387;23;20155;-80
2022/04/14 00:32:13;;;;;;;23.07;21.77;;;14.50;43.60;;;;;;6218671;23;20213;-80
2022/04/14 00:34:39;;;;;;;22.60;21.40;;;14.40;44.00;;;;;;6218751;23;20418;-79
2022/04/14 00:37:05;;;;;;;21.80;20.70;;;14.40;44.00;;;;;;6218319;23;20167;-79
2022/04/14 00:39:31;;;;;;;22.70;21.50;;;14.30;44.30;;;;;;6218470;23;20162;-79
2022/04/14 00:41:56;;;;;;;23.10;21.60;;;14.30;44.40;;;;;;6217715;23;20230;-79
2022/04/14 00:44:22;;;;;;;23.73;22.43;;;14.30;44.40;;;;;;6218569;23;20596;-79
2022/04/14 00:46:48;;;;;;;23.77;22.60;;;14.30;44.70;;;;;;6218276;23;20163;-79
2022/04/14 00:49:13;;;;;;;23.10;22.00;;;14.20;45.30;;;;;;6218306;23;20162;-80
2022/04/14 00:51:42;;;;;;;22.40;21.30;;;14.10;45.70;;;;;;6218252;23;20155;-79
2022/04/14 00:54:07;;;;;;;23.83;21.93;;;14.00;46.00;;;;;;6218842;23;20539;-79
2022/04/14 00:56:33;;;;;;;22.60;21.40;;;14.00;45.50;;;;;;6218491;23;20390;-79
2022/04/14 00:58:59;;;;;;;23.10;21.90;;;14.00;45.20;;;;;;6218907;23;20155;-79
2022/04/14 01:01:24;;;;;;;23.27;22.17;;;14.00;45.10;;;;;;6218337;23;20148;-79
2022/04/14 01:03:54;;;;;;;21.90;21.00;;;14.00;45.20;;;;;;6244869;23;20221;-80
2022/04/14 01:06:21;;;;;;;23.70;22.50;;;14.00;45.50;;;;;;6218329;23;20486;-80
2022/04/14 01:09:16;;;;;;;22.20;21.10;;;14.00;45.10;;;;;;6244432;23;20705;-80
2022/04/14 01:11:35;;;;;;;24.07;22.87;;;14.00;45.40;;;;;;6244730;23;20386;-80
2022/04/14 01:14:01;;;;;;;22.40;21.30;;;14.00;45.30;;;;;;6217738;23;20478;-79
2022/04/14 01:16:27;;;;;;;23.93;22.53;;;13.90;45.00;;;;;;6218306;23;20901;-80
2022/04/14 01:18:52;;;;;;;23.27;22.10;;;13.90;45.20;;;;;;6218303;23;20222;-79
2022/04/14 01:21:21;;;;;;;25.00;23.60;;;14.00;45.80;;;;;;6218439;23;20156;-79
2022/04/14 01:23:47;;;;;;;24.33;23.13;;;13.90;45.60;;;;;;6217905;23;20152;-79
2022/04/14 01:26:12;;;;;;;24.50;23.30;;;13.90;45.90;;;;;;6217794;23;20393;-79
2022/04/14 01:28:38;;;;;;;22.83;21.63;;;13.90;46.60;;;;;;6217967;23;20619;-79
2022/04/14 01:31:04;;;;;;;22.77;21.70;;;13.90;46.20;;;;;;6217831;23;20168;-79
2022/04/14 01:33:30;;;;;;;22.93;21.50;;;13.90;46.20;;;;;;6217229;23;20242;-80
2022/04/14 01:35:55;;;;;;;22.43;21.40;;;13.80;46.50;;;;;;6244260;23;20547;-79
2022/04/14 01:38:21;;;;;;;22.80;21.77;;;13.90;46.40;;;;;;6217745;23;20166;-80
2022/04/14 01:40:47;;;;;;;24.00;22.40;;;13.80;46.70;;;;;;6218120;23;20160;-79
2022/04/14 01:43:12;;;;;;;23.40;21.83;;;13.70;47.10;;;;;;6217498;23;20246;-80
2022/04/14 01:45:38;;;;;;;22.80;21.53;;;13.60;47.40;;;;;;6218171;23;20170;-80
2022/04/14 01:48:04;;;;;;;22.80;21.70;;;13.60;47.70;;;;;;6217722;23;20159;-79
2022/04/14 01:50:30;;;;;;;24.40;22.77;;;13.60;47.60;;;;;;6218256;23;20638;-79
2022/04/14 01:52:56;;;;;;;23.47;22.20;;;13.60;47.70;;;;;;6217894;23;20406;-79
2022/04/14 01:55:21;;;;;;;23.43;22.13;;;13.50;48.60;;;;;;6218053;23;20183;-79
2022/04/14 01:57:47;;;;;;;23.57;22.27;;;13.50;49.00;;;;;;6244841;23;20220;-80
2022/04/14 02:00:14;;;;;;;23.10;21.70;;;13.40;48.80;;;;;;6217901;23;20170;-80
2022/04/14 02:02:40;;;;;;;22.90;21.60;;;13.50;49.10;;;;;;6217804;23;20344;-78
2022/04/14 02:05:06;;;;;;;23.40;22.27;;;13.50;49.40;;;;;;6217572;23;20386;-79
2022/04/14 02:07:32;;;;;;;24.27;23.07;;;13.50;49.30;;;;;;6218088;23;20482;-79
2022/04/14 02:09:58;;;;;;;23.30;22.10;;;13.50;49.00;;;;;;6217246;23;20792;-79
2022/04/14 02:12:27;;;;;;;25.40;24.10;;;13.50;49.60;;;;;;6217994;23;20426;-79
2022/04/14 02:14:53;;;;;;;23.53;22.30;;;13.50;49.40;;;;;;6216671;23;20642;-78
2022/04/14 02:17:19;;;;;;;24.40;23.10;;;13.40;49.10;;;;;;6218021;23;20386;-80
2022/04/14 02:19:45;;;;;;;26.07;24.40;;;13.50;48.90;;;;;;6217691;23;20492;-79
2022/04/14 02:22:10;;;;;;;24.40;23.30;;;13.50;48.50;;;;;;6217650;23;20206;-80
2022/04/14 02:24:38;;;;;;;24.03;22.57;;;13.50;48.60;;;;;;6217704;23;20155;-79
2022/04/14 02:27:04;;;;;;;24.77;23.37;;;13.50;48.70;;;;;;6217639;23;20165;-79
2022/04/14 02:29:29;;;;;;;23.80;22.60;;;13.40;48.60;;;;;;6217655;23;20394;-80
2022/04/14 02:31:57;;;;;;;23.43;22.43;;;13.40;48.50;;;;;;6244420;23;20382;-80
2022/04/14 02:34:24;;;;;;;23.13;22.13;;;13.40;48.70;;;;;;6216774;23;20195;-80
2022/04/14 02:36:50;;;;;;;23.97;22.80;;;13.40;49.10;;;;;;6217213;23;20421;-80
2022/04/14 02:39:16;;;;;;;24.87;23.57;;;13.40;49.40;;;;;;6217108;23;20387;-80
2022/04/14 02:41:41;;;;;;;24.80;23.47;;;13.40;49.30;;;;;;6244417;23;20151;-80
2022/04/14 02:44:07;;;;;;;23.03;21.80;;;13.40;49.40;;;;;;6217125;23;20156;-79
2022/04/14 02:46:32;;;;;;;23.63;22.63;;;13.40;49.30;;;;;;6217318;23;20160;-79
2022/04/14 02:48:58;;;;;;;24.60;23.37;;;13.40;49.40;;;;;;6219029;23;20151;-79
2022/04/14 02:51:24;;;;;;;23.90;22.77;;;13.30;49.30;;;;;;6219340;23;20217;-80
2022/04/14 02:53:49;;;;;;;25.00;23.80;;;13.30;49.50;;;;;;6219580;23;20500;-80
2022/04/14 02:56:15;;;;;;;24.57;23.27;;;13.30;49.70;;;;;;6218969;23;20437;-80
2022/04/14 02:58:41;;;;;;;23.90;22.70;;;13.20;50.40;;;;;;6219389;23;20625;-79
2022/04/14 03:01:06;;;;;;;27.07;25.67;;;13.10;50.50;;;;;;6219606;23;20162;-79
2022/04/14 03:03:32;;;;;;;26.70;25.03;;;13.10;50.40;;;;;;6219206;23;20242;-79
2022/04/14 03:05:57;;;;;;;26.77;25.00;;;13.10;50.70;;;;;;6219096;23;20170;-80
2022/04/14 03:08:23;;;;;;;26.13;24.83;;;13.10;50.70;;;;;;6219835;23;20606;-79
2022/04/14 03:10:49;;;;;;;26.70;25.50;;;13.10;50.60;;;;;;6219085;23;20183;-80
2022/04/14 03:13:14;;;;;;;26.70;25.30;;;13.10;50.40;;;;;;6218538;23;20159;-79
2022/04/14 03:15:40;;;;;;;25.57;24.37;;;13.10;50.70;;;;;;6246124;23;20498;-78
2022/04/14 03:18:05;;;;;;;24.97;23.80;;;13.10;50.70;;;;;;6219603;23;20152;-79
2022/04/14 03:20:31;;;;;;;26.47;25.27;;;13.10;51.50;;;;;;6219422;23;20542;-79
2022/04/14 03:22:57;;;;;;;25.00;23.90;;;13.10;50.80;;;;;;6219125;23;20190;-78
2022/04/14 03:25:22;;;;;;;25.40;24.00;;;13.10;50.70;;;;;;6219199;23;20155;-79
2022/04/14 03:27:48;;;;;;;25.57;24.30;;;13.10;50.50;;;;;;6219171;23;20159;-80
2022/04/14 03:30:14;;;;;;;25.93;24.53;;;13.00;51.10;;;;;;6219514;23;20490;-80
2022/04/14 03:32:47;;;;;;;26.33;25.03;;;13.00;51.20;;;;;;6219481;23;20151;-80
2022/04/14 03:35:13;;;;;;;26.37;25.17;;;13.00;51.20;;;;;;6218878;23;20623;-79
2022/04/14 03:37:40;;;;;;;26.27;24.73;;;12.90;51.30;;;;;;6219461;23;20757;-79
2022/04/14 03:40:07;;;;;;;25.43;23.93;;;13.00;51.70;;;;;;6219314;23;20847;-79
2022/04/14 03:42:33;;;;;;;25.53;24.20;;;12.90;52.00;;;;;;6219142;23;20379;-79
2022/04/14 03:44:59;;;;;;;25.33;23.90;;;12.90;51.40;;;;;;6219057;23;20795;-79
2022/04/14 03:47:25;;;;;;;26.47;24.90;;;12.90;50.80;;;;;;6219108;23;20426;-79
2022/04/14 03:49:51;;;;;;;25.53;24.43;;;12.90;50.70;;;;;;6219068;23;20167;-79
2022/04/14 03:52:18;;;;;;;26.63;25.23;;;13.00;50.60;;;;;;6219403;23;20405;-78
2022/04/14 03:54:44;;;;;;;27.00;25.43;;;12.80;51.10;;;;;;6219541;23;20171;-77
2022/04/14 03:57:10;;;;;;;28.30;26.70;;;12.80;51.30;;;;;;6219774;23;20413;-78
2022/04/14 03:59:36;;;;;;;26.33;24.90;;;12.90;51.20;;;;;;6219703;23;20395;-77
2022/04/14 04:02:02;;;;;;;29.60;28.03;;;12.80;51.30;;;;;;6219567;23;20432;-78
2022/04/14 04:04:27;;;;;;;28.03;26.37;;;12.80;52.20;;;;;;6219344;23;20477;-79
2022/04/14 04:06:53;;;;;;;26.50;25.17;;;12.80;51.50;;;;;;6219708;23;20225;-79
2022/04/14 04:09:19;;;;;;;26.20;24.83;;;12.70;51.80;;;;;;6219762;23;20159;-79
2022/04/14 04:11:44;;;;;;;28.23;26.80;;;12.80;51.70;;;;;;6246330;23;20150;-78
2022/04/14 04:14:10;;;;;;;27.20;25.37;;;12.90;51.40;;;;;;6219315;23;20167;-79
2022/04/14 04:16:35;;;;;;;27.10;25.40;;;12.80;51.70;;;;;;6219621;23;20155;-79
2022/04/14 04:19:01;;;;;;;27.50;26.03;;;12.80;52.60;;;;;;6219738;23;20155;-78
2022/04/14 04:21:29;;;;;;;25.90;24.20;;;12.80;52.20;;;;;;6219676;23;20485;-79
2022/04/14 04:23:55;;;;;;;26.67;25.17;;;12.80;52.70;;;;;;6219395;23;20614;-78
2022/04/14 04:26:20;;;;;;;29.77;27.80;;;12.70;53.40;;;;;;6219532;23;20413;-79
2022/04/14 04:28:46;;;;;;;28.20;26.47;;;12.70;53.30;;;;;;6219635;23;20217;-78
2022/04/14 04:31:12;;;;;;;27.03;25.00;;;12.60;53.20;;;;;;6219522;23;20182;-79
2022/04/14 04:33:37;;;;;;;26.50;25.10;;;12.70;53.30;;;;;;6219717;23;20159;-79
2022/04/14 04:36:03;;;;;;;28.58;26.70;;;12.60;53.10;;;;;;6218857;23;20396;-78
2022/04/14 04:38:29;;;;;;;28.70;27.10;;;12.60;53.70;;;;;;6219450;23;20159;-78
2022/04/14 04:40:58;;;;;;;26.03;24.53;;;12.70;52.90;;;;;;6219689;23;20383;-78
2022/04/14 04:43:24;;;;;;;26.63;25.30;;;12.60;52.70;;;;;;6219427;23;20230;-79
2022/04/14 04:45:50;;;;;;;29.57;27.67;;;12.70;53.10;;;;;;6218943;23;20467;-78
2022/04/14 04:48:16;;;;;;;27.07;25.57;;;12.50;53.60;;;;;;6219322;23;20378;-78
2022/04/14 04:50:41;;;;;;;27.80;25.80;;;12.60;53.70;;;;;;6218391;23;20170;-79
2022/04/14 04:53:07;;;;;;;29.17;26.97;;;12.60;53.70;;;;;;6218107;23;20197;-78
2022/04/14 04:55:33;;;;;;;28.10;26.20;;;12.50;53.80;;;;;;6217831;23;20179;-78
2022/04/14 04:57:58;;;;;;;29.60;27.43;;;12.60;53.90;;;;;;6217883;23;20155;-78
2022/04/14 05:00:24;;;;;;;26.97;25.67;;;12.50;54.50;;;;;;6218489;23;20162;-78
2022/04/14 05:02:49;;;;;;;28.27;26.30;;;12.50;55.20;;;;;;6217441;23;20627;-79
2022/04/14 05:05:15;;;;;;;28.17;25.97;;;12.50;55.10;;;;;;6217632;23;20151;-80
2022/04/14 05:07:41;;;;;;;28.53;26.83;;;12.60;54.50;;;;;;6219724;23;20170;-79
2022/04/14 05:10:07;;;;;;;31.87;29.87;;;12.60;54.70;;;;;;6218771;23;20540;-78
2022/04/14 05:12:32;;;;;;;28.33;26.60;;;12.60;54.80;;;;;;6219423;23;20159;-78
2022/04/14 05:14:59;;;;;;;26.77;25.43;;;12.50;54.90;;;;;;6220296;23;20433;-78
2022/04/14 05:17:25;;;;;;;27.60;26.10;;;12.50;55.50;;;;;;6246044;23;20175;-78
2022/04/14 05:19:50;;;;;;;28.60;26.80;;;12.60;55.20;;;;;;6219288;23;20386;-78
2022/04/14 05:22:16;;;;;;;29.00;27.07;;;12.70;54.80;;;;;;6245390;23;20147;-77
2022/04/14 05:24:41;;;;;;;27.60;25.60;;;12.70;55.10;;;;;;6218415;23;20167;-77
2022/04/14 05:27:07;;;;;;;28.67;27.17;;;12.70;54.90;;;;;;6245207;23;20179;-77
2022/04/14 05:29:36;;;;;;;30.97;29.03;;;12.80;54.70;;;;;;6193203;23;20206;-80
2022/04/14 05:32:01;;;;;;;30.43;27.67;;;12.70;54.60;;;;;;6218115;23;20405;-77
2022/04/14 05:34:27;;;;;;;32.80;30.43;;;12.70;55.10;;;;;;6218001;23;20422;-78
2022/04/14 05:36:52;;;;;;;29.30;27.70;;;12.80;55.00;;;;;;6218242;23;20156;-77
2022/04/14 05:39:18;;;;;;;28.23;26.10;;;12.80;54.70;;;;;;6218027;23;20163;-79
2022/04/14 05:41:44;;;;;;;28.10;26.37;;;12.80;54.80;;;;;;6218200;23;20155;-78
2022/04/14 05:44:10;;;;;;;27.80;26.30;;;12.80;55.70;;;;;;6218044;23;20148;-78
2022/04/14 05:46:36;;;;;;;28.90;26.47;;;12.80;55.30;;;;;;6217964;23;20155;-78
2022/04/14 05:49:02;;;;;;;29.73;27.80;;;12.90;55.20;;;;;;6218075;23;20782;-78
2022/04/14 05:51:28;;;;;;;27.53;25.80;;;13.00;55.00;;;;;;6218300;23;20148;-78
2022/04/14 05:53:53;;;;;;;28.60;27.10;;;12.90;55.30;;;;;;6217863;23;20440;-77
2022/04/14 05:56:20;;;;;;;30.37;28.40;;;12.90;55.30;;;;;;6218250;23;20190;-79
2022/04/14 05:58:46;;;;;;;29.80;28.00;;;12.90;55.50;;;;;;6218422;23;20155;-77
2022/04/14 06:01:12;;;;;;;31.83;29.80;;;13.00;55.70;;;;;;6218519;23;20389;-77
2022/04/14 06:03:43;;;;;;;30.50;28.10;;;12.90;56.40;;;;;;6245541;23;20374;-78
2022/04/14 06:06:12;;;;;;;31.23;29.03;;;13.00;56.80;;;;;;6245158;22;20178;-77
2022/04/14 06:08:38;;;;;;;32.97;30.53;;;13.10;57.10;;;;;;6245267;22;20378;-78
2022/04/14 06:11:06;;;;;;;35.80;33.10;;;13.10;57.50;;;;;;6218190;23;20421;-77
2022/04/14 06:13:35;;;;;;;41.63;37.97;;;13.20;59.30;;;;;;6216957;23;20388;-78
2022/04/14 06:16:01;;;;;;;40.17;36.67;;;13.30;60.80;;;;;;6218313;23;20524;-77
2022/04/14 06:18:26;;;;;;;38.30;35.03;;;13.40;60.80;;;;;;6218007;23;20382;-76
2022/04/14 06:20:54;;;;;;;39.07;35.97;;;13.60;62.10;;;;;;6218206;23;20390;-77
2022/04/14 06:23:20;;;;;;;37.67;34.43;;;13.70;61.10;;;;;;6218272;23;20155;-77
2022/04/14 06:25:49;;;;;;;38.30;34.73;;;13.80;61.20;;;;;;6218197;23;20416;-77
2022/04/14 06:28:16;;;;;;;37.03;33.80;;;13.80;61.50;;;;;;6218363;23;20160;-77
2022/04/14 06:30:42;;;;;;;35.77;32.30;;;13.90;61.30;;;;;;6218212;23;20481;-78
2022/04/14 06:33:08;;;;;;;35.93;33.10;;;13.90;61.30;;;;;;6218024;23;20467;-79
2022/04/14 06:35:34;;;;;;;36.17;33.10;;;14.00;60.90;;;;;;6214932;23;20183;-78
2022/04/14 06:37:59;;;;;;;45.67;42.07;;;14.10;60.50;;;;;;6215315;23;20392;-78
2022/04/14 06:40:25;;;;;;;45.33;41.57;;;14.20;59.60;;;;;;6218462;23;20622;-78
2022/04/14 06:42:59;;;;;;;39.33;35.93;;;14.30;59.10;;;;;;6218020;23;20152;-78
2022/04/14 06:45:24;;;;;;;40.10;36.50;;;14.20;59.40;;;;;;6218474;23;20751;-78
2022/04/14 06:47:50;;;;;;;43.27;39.77;;;14.20;59.40;;;;;;6217519;23;20433;-78
2022/04/14 06:50:15;;;;;;;37.60;34.27;;;14.30;59.10;;;;;;6217947;23;20633;-78
2022/04/14 06:52:41;;;;;;;35.77;32.87;;;14.30;59.50;;;;;;6217873;23;20253;-79
2022/04/14 06:55:08;;;;;;;42.15;38.75;;;14.30;59.60;;;;;;6216470;23;20462;-77
2022/04/14 06:57:34;;;;;;;39.47;35.83;;;14.50;58.80;;;;;;6218219;23;20158;-78
2022/04/14 07:00:00;;;;;;;35.93;33.40;;;14.50;58.80;;;;;;6218062;23;20386;-78
2022/04/14 07:02:26;;;;;;;37.63;34.40;;;14.50;58.30;;;;;;6217667;23;20170;-79
2022/04/14 07:04:52;;;;;;;35.43;32.00;;;14.50;58.30;;;;;;6218139;23;20846;-78
2022/04/14 07:07:17;;;;;;;38.00;34.53;;;14.50;58.30;;;;;;6218192;23;20386;-78
2022/04/14 07:09:44;;;;;;;33.50;31.10;;;14.60;58.40;;;;;;6218043;23;20232;-78
2022/04/14 07:12:10;;;;;;;34.83;32.27;;;14.70;57.70;;;;;;6218157;23;20151;-79
2022/04/14 07:14:36;;;;;;;36.30;33.40;;;14.70;57.60;;;;;;6217611;23;20910;-79
2022/04/14 07:17:01;;;;;;;38.23;34.70;;;14.70;57.70;;;;;;6218512;23;20382;-79
2022/04/14 07:19:27;;;;;;;35.73;32.87;;;14.70;57.70;;;;;;6218240;23;20163;-78
2022/04/14 07:21:54;;;;;;;35.10;32.37;;;14.80;57.40;;;;;;6217977;23;20469;-78
2022/04/14 07:24:19;;;;;;;35.80;32.90;;;14.90;57.00;;;;;;6218118;23;20386;-78
2022/04/14 07:26:45;;;;;;;36.73;33.60;;;15.00;56.90;;;;;;6218272;23;20418;-79
2022/04/14 07:29:11;;;;;;;34.43;31.63;;;15.10;56.00;;;;;;6217763;23;20460;-78
2022/04/14 07:31:37;;;;;;;36.33;33.33;;;15.10;55.90;;;;;;6217975;23;20552;-78
2022/04/14 07:34:05;;;;;;;37.20;34.10;;;15.00;55.80;;;;;;6218198;23;20383;-77
2022/04/14 07:36:30;;;;;;;36.33;33.40;;;15.00;56.00;;;;;;6219680;23;20492;-78
2022/04/14 07:38:56;;;;;;;34.07;31.63;;;15.10;55.90;;;;;;6219649;23;20410;-79
2022/04/14 07:41:22;;;;;;;36.80;33.83;;;15.20;55.90;;;;;;6219818;23;20586;-79
2022/04/14 07:43:47;;;;;;;35.27;32.73;;;15.20;56.00;;;;;;6219670;23;20173;-78
2022/04/14 07:46:13;;;;;;;35.63;32.80;;;15.20;56.00;;;;;;6246665;23;20518;-80
2022/04/14 07:48:38;;;;;;;36.40;33.40;;;15.30;56.10;;;;;;6220080;23;20171;-79
2022/04/14 07:51:04;;;;;;;34.17;31.70;;;15.30;56.00;;;;;;6218784;23;20168;-77
2022/04/14 07:53:31;;;;;;;35.47;32.37;;;15.50;55.20;;;;;;6219283;23;20175;-77
2022/04/14 07:55:56;;;;;;;34.40;31.80;;;15.50;54.30;;;;;;6218873;23;20179;-77
2022/04/14 07:58:22;;;;;;;36.23;33.13;;;15.50;54.40;;;;;;6218249;23;20874;-78
2022/04/14 08:00:51;;;;;;;34.53;31.87;;;15.60;53.80;;;;;;6217057;23;20156;-78
2022/04/14 08:03:17;;;;;;;35.17;32.50;;;15.70;53.70;;;;;;6217178;23;20590;-78
2022/04/14 08:05:46;;;;;;;34.43;31.77;;;15.70;53.50;;;;;;6218843;23;20422;-78
2022/04/14 08:08:20;;;;;;;35.80;33.30;;;15.70;53.30;;;;;;6245700;23;20383;-78
2022/04/14 08:10:48;;;;;;;36.03;33.10;;;15.70;54.00;;;;;;6218855;23;20386;-78
2022/04/14 08:13:15;;;;;;;33.70;31.03;;;15.80;54.10;;;;;;6245491;23;20835;-78
2022/04/14 08:15:41;;;;;;;35.77;32.90;;;15.80;53.30;;;;;;6218870;23;20773;-79
2022/04/14 08:18:07;;;;;;;34.50;32.17;;;15.90;53.00;;;;;;6218729;23;20383;-78
2022/04/14 08:20:39;;;;;;;36.33;33.53;;;16.00;51.50;;;;;;6218945;23;20481;-79
2022/04/14 08:23:05;;;;;;;38.20;35.10;;;16.10;51.70;;;;;;6218379;23;20413;-78
2022/04/14 08:25:35;;;;;;;35.67;33.37;;;16.00;51.40;;;;;;6218635;23;20416;-78
2022/04/14 08:28:03;;;;;;;38.27;35.17;;;16.00;51.90;;;;;;6218706;23;20390;-77
2022/04/14 08:30:31;;;;;;;39.93;36.70;;;16.00;51.50;;;;;;6219003;23;20493;-78
2022/04/14 08:32:59;;;;;;;37.27;34.67;;;16.00;51.80;;;;;;6218498;23;20469;-78
2022/04/14 08:35:26;;;;;;;40.43;37.03;;;16.10;51.80;;;;;;6218444;23;20430;-78
2022/04/14 08:37:52;;;;;;;36.27;33.70;;;16.20;51.10;;;;;;6218224;23;20393;-79
2022/04/14 08:40:21;;;;;;;34.33;31.07;;;16.30;50.80;;;;;;6218864;23;20386;-79
2022/04/14 08:42:56;;;;;;;35.23;32.67;;;16.20;51.20;;;;;;6218632;23;20156;-79
2022/04/14 08:45:23;;;;;;;41.47;37.93;;;16.20;50.90;;;;;;6218188;23;20386;-78
2022/04/14 08:47:51;;;;;;;36.47;33.67;;;16.30;51.20;;;;;;6218342;23;20390;-78
2022/04/14 08:50:17;;;;;;;35.13;32.83;;;16.30;51.10;;;;;;6218509;23;20386;-79
2022/04/14 08:52:43;;;;;;;37.30;34.60;;;16.20;51.20;;;;;;6218654;23;20480;-78
2022/04/14 08:55:11;;;;;;;36.93;34.10;;;16.30;51.20;;;;;;6218876;23;20517;-78
2022/04/14 08:57:37;;;;;;;34.63;32.20;;;16.30;50.70;;;;;;6219140;23;20744;-78
2022/04/14 09:00:06;;;;;;;35.53;33.10;;;16.40;50.80;;;;;;6218263;23;20382;-79
2022/04/14 09:02:34;;;;;;;36.43;33.80;;;16.40;51.00;;;;;;6218170;23;20378;-79
2022/04/14 09:05:00;;;;;;;36.03;33.40;;;16.50;50.80;;;;;;6217966;23;20394;-77
2022/04/14 09:07:29;;;;;;;36.03;33.63;;;16.60;50.80;;;;;;6218476;23;20385;-79
2022/04/14 09:09:55;;;;;;;37.27;34.70;;;16.70;49.90;;;;;;6218365;23;20457;-78
2022/04/14 09:12:21;;;;;;;39.97;37.17;;;16.70;48.60;;;;;;6218455;23;20866;-78
2022/04/14 09:14:48;;;;;;;39.40;36.37;;;16.80;48.80;;;;;;6218000;23;20430;-79
2022/04/14 09:17:14;;;;;;;38.70;35.70;;;16.90;48.60;;;;;;6218102;23;20390;-78
2022/04/14 09:19:41;;;;;;;37.50;34.77;;;16.90;48.70;;;;;;6217943;23;20755;-78
2022/04/14 09:22:14;;;;;;;41.27;37.70;;;17.00;48.40;;;;;;6218203;23;20390;-78
2022/04/14 09:24:49;;;;;;;38.00;34.57;;;17.00;47.80;;;;;;6218165;23;20390;-78
2022/04/14 09:27:39;;;;;;;37.60;35.00;;;17.00;47.80;;;;;;6218177;23;20717;-78
2022/04/14 09:30:07;;;;;;;37.20;34.50;;;17.10;47.90;;;;;;6218099;23;20481;-78
2022/04/14 09:32:44;;;;;;;36.57;34.00;;;17.10;47.80;;;;;;6245200;23;20378;-78
2022/04/14 09:35:20;;;;;;;36.33;33.50;;;17.00;48.20;;;;;;6218288;23;20425;-78
2022/04/14 09:38:03;;;;;;;36.40;33.90;;;17.20;48.00;;;;;;6218672;23;20410;-78
2022/04/14 09:40:34;;;;;;;37.97;35.17;;;17.20;48.00;;;;;;6218969;23;20760;-77
2022/04/14 09:43:01;;;;;;;38.47;35.20;;;17.30;47.30;;;;;;6218967;23;20144;-78
2022/04/14 09:45:29;;;;;;;38.37;35.60;;;17.40;47.20;;;;;;6218973;23;20398;-78
2022/04/14 09:48:10;;;;;;;40.10;37.20;;;17.40;47.20;;;;;;6218402;23;20425;-78
2022/04/14 09:50:39;;;;;;;38.50;35.80;;;17.40;47.20;;;;;;6218333;23;20394;-78
2022/04/14 09:53:15;;;;;;;37.40;34.70;;;17.40;47.30;;;;;;6217891;23;20406;-79
2022/04/14 09:55:49;;;;;;;35.03;32.60;;;17.40;48.10;;;;;;6217952;23;20430;-79
2022/04/14 09:58:17;;;;;;;40.60;37.30;;;17.50;46.70;;;;;;6217847;23;20485;-78
2022/04/14 10:00:43;;;;;;;41.23;38.27;;;17.60;46.20;;;;;;6218071;23;20394;-79
2022/04/14 10:03:14;;;;;;;39.27;35.80;;;17.70;46.20;;;;;;6217545;23;20438;-78
2022/04/14 10:05:40;;;;;;;38.67;36.07;;;17.60;47.30;;;;;;6217313;23;20154;-78
2022/04/14 10:08:09;;;;;;;38.00;35.50;;;17.60;47.10;;;;;;6217990;23;20389;-78
2022/04/14 10:10:37;;;;;;;38.57;35.67;;;17.70;46.80;;;;;;6218429;23;20382;-78
2022/04/14 10:13:07;;;;;;;38.50;35.70;;;17.80;46.40;;;;;;6218387;23;20481;-79
2022/04/14 10:15:42;;;;;;;38.47;35.63;;;17.80;45.70;;;;;;6245113;23;20448;-79
2022/04/14 10:18:13;;;;;;;38.27;35.17;;;17.80;45.20;;;;;;6218025;23;21067;-77
2022/04/14 10:20:40;;;;;;;36.57;34.07;;;17.90;45.70;;;;;;6217419;23;20745;-78
2022/04/14 10:23:09;;;;;;;36.63;34.33;;;17.90;45.50;;;;;;6218014;23;21054;-78
2022/04/14 10:25:38;;;;;;;37.20;34.50;;;18.00;45.50;;;;;;6216191;23;20390;-78
2022/04/14 10:28:15;;;;;;;39.13;36.00;;;18.10;44.50;;;;;;6218060;23;20390;-78
2022/04/14 10:30:52;;;;;;;38.47;35.93;;;18.20;44.00;;;;;;6217919;23;20378;-79
2022/04/14 10:33:18;;;;;;;38.17;35.37;;;18.40;42.40;;;;;;6217866;23;20684;-78
2022/04/14 10:35:44;;;;;;;35.20;33.00;;;18.30;41.60;;;;;;6218048;23;20425;-78
2022/04/14 10:38:26;;;;;;;37.10;34.47;;;18.40;41.70;;;;;;6219273;23;20393;-77
2022/04/14 10:41:12;;;;;;;35.90;33.60;;;18.40;41.10;;;;;;6219761;23;20481;-78
2022/04/14 10:43:41;;;;;;;37.10;34.20;;;18.50;40.20;;;;;;6219300;23;20379;-78
2022/04/14 10:46:06;;;;;;;36.77;34.13;;;18.50;40.20;;;;;;6219141;23;20394;-79
2022/04/14 10:48:39;;;;;;;35.67;33.40;;;18.60;41.10;;;;;;6219561;23;20469;-77
2022/04/14 10:51:23;;;;;;;37.03;34.27;;;18.60;41.30;;;;;;6219488;23;20618;-78
2022/04/14 10:54:09;;;;;;;38.03;35.30;;;18.70;41.00;;;;;;6219283;23;20402;-78
2022/04/14 10:56:34;;;;;;;38.97;35.87;;;18.80;41.20;;;;;;6218824;23;20429;-78
2022/04/14 10:59:05;;;;;;;36.80;34.10;;;18.80;41.70;;;;;;6217520;23;20432;-78
2022/04/14 11:01:50;;;;;;;38.13;35.63;;;18.80;41.70;;;;;;6217963;23;20155;-78
2022/04/14 11:04:42;;;;;;;37.20;34.40;;;18.90;40.70;;;;;;6217492;23;20386;-78
2022/04/14 11:07:21;;;;;;;38.27;35.07;;;19.00;40.10;;;;;;6216925;23;20378;-79
2022/04/14 11:09:51;;;;;;;37.40;34.80;;;19.00;40.90;;;;;;6218717;23;20382;-77
2022/04/14 11:12:32;;;;;;;38.93;36.37;;;19.10;39.70;;;;;;6219128;23;20460;-79
2022/04/14 11:15:06;;;;;;;39.57;36.87;;;18.90;40.40;;;;;;6219418;23;20425;-78
2022/04/14 11:17:32;;;;;;;38.90;36.20;;;19.00;40.90;;;;;;6219613;23;20469;-79
2022/04/14 11:20:19;;;;;;;36.13;33.53;;;19.00;39.60;;;;;;6219399;23;20385;-78
2022/04/14 11:23:07;;;;;;;40.30;37.50;;;19.00;40.30;;;;;;6218916;23;20473;-78
2022/04/14 11:25:39;;;;;;;37.00;34.60;;;19.20;39.60;;;;;;6219183;23;20390;-79
2022/04/14 11:28:21;;;;;;;38.73;36.20;;;19.10;39.50;;;;;;6218909;23;20734;-78
2022/04/14 11:30:49;;;;;;;37.27;34.77;;;19.20;39.60;;;;;;6219329;23;20413;-79
2022/04/14 11:33:28;;;;;;;36.67;34.33;;;19.20;38.60;;;;;;6219104;23;20394;-78
2022/04/14 11:36:06;;;;;;;37.73;34.70;;;19.20;39.00;;;;;;6218813;23;20508;-78
2022/04/14 11:38:53;;;;;;;37.90;34.70;;;19.20;38.10;;;;;;6219227;23;20375;-77
2022/04/14 11:41:32;;;;;;;37.87;35.07;;;19.40;37.40;;;;;;6219122;23;20370;-78
2022/04/14 11:44:01;;;;;;;40.53;37.33;;;19.40;37.40;;;;;;6218394;23;20393;-77
2022/04/14 11:46:27;;;;;;;38.77;36.07;;;19.40;38.10;;;;;;6219180;23;20374;-78
2022/04/14 11:48:53;;;;;;;36.83;34.40;;;19.50;38.20;;;;;;6219018;23;20448;-78
2022/04/14 11:51:19;;;;;;;38.73;35.83;;;19.50;38.70;;;;;;6219846;23;20159;-78
2022/04/14 11:53:45;;;;;;;39.13;36.70;;;19.50;38.70;;;;;;6218631;23;20405;-78
2022/04/14 11:56:18;;;;;;;40.47;37.27;;;19.50;38.10;;;;;;6218594;23;20429;-78
2022/04/14 11:58:45;;;;;;;37.80;35.07;;;19.50;38.10;;;;;;6219250;23;20457;-78
2022/04/14 12:01:12;;;;;;;39.50;37.00;;;19.50;37.90;;;;;;6218640;23;20386;-78
2022/04/14 12:03:38;;;;;;;39.63;37.00;;;19.60;37.10;;;;;;6218863;23;20473;-77
2022/04/14 12:06:08;;;;;;;39.57;36.20;;;19.50;37.50;;;;;;6218681;23;20425;-78
2022/04/14 12:08:35;;;;;;;39.80;36.67;;;19.60;37.40;;;;;;6218991;23;20382;-78
2022/04/14 12:11:09;;;;;;;37.77;35.30;;;19.60;37.70;;;;;;6218640;23;20485;-79
2022/04/14 12:13:34;;;;;;;39.73;37.00;;;19.60;38.10;;;;;;6218734;23;20382;-77
2022/04/14 12:16:02;;;;;;;38.73;36.10;;;19.70;38.00;;;;;;6218482;23;20479;-76
2022/04/14 12:18:28;;;;;;;40.70;37.80;;;19.70;38.60;;;;;;6218640;23;20159;-77
2022/04/14 12:20:53;;;;;;;41.67;38.80;;;19.80;38.90;;;;;;6218498;23;20378;-77
2022/04/14 12:23:19;;;;;;;40.37;37.43;;;19.80;38.10;;;;;;6219113;23;20231;-79
2022/04/14 12:25:45;;;;;;;40.40;37.50;;;19.90;37.70;;;;;;6218675;23;20250;-79
2022/04/14 12:28:11;;;;;;;41.20;38.53;;;19.80;38.10;;;;;;6218429;23;20595;-78
2022/04/14 12:30:41;;;;;;;42.23;38.87;;;19.80;37.70;;;;;;6218374;23;20390;-79